Wana, West Virginia
Current Conditions -  °F | °C
As of 9:53 PM on Tuesday 25 Nov 2014 (Local Time) from KMGW Reporting Station
Clear Clear  
Wind Chill: 32°   Ceiling: Unl
Heat Index: 37°   Visibility: 10mi
Dew Point: 24°   Wind: 6mph
Humidity: 59%   Direction: 360°N
Pressure: 30.17"   Gusts: NA
Location:  39.7°N, 80.3°W
Report Text: KMGW 260253Z 36005KT 10SM CLR 03/M04 A3017 RMK AO2 SLP224 T00281044 51019
Loading
Personal Weather Stations






























Interactive Weather Map New forecast layout! Learn more

10-Day Weather Forecast

Advertisements
Track Severe Weather on mobile